sensor_id;sensor_type;location;lat;lon;timestamp;temperature;humidity
56428;DHT22;42331;53.578;9.760;2023-05-07T00:01:08;8.80;99.90
56428;DHT22;42331;53.578;9.760;2023-05-07T00:03:39;8.80;99.90
56428;DHT22;42331;53.578;9.760;2023-05-07T00:06:09;8.80;99.90
56428;DHT22;42331;53.578;9.760;2023-05-07T00:08:43;8.80;99.90
56428;DHT22;42331;53.578;9.760;2023-05-07T00:11:14;8.80;99.90
56428;DHT22;42331;53.578;9.760;2023-05-07T00:13:45;8.90;99.90
56428;DHT22;42331;53.578;9.760;2023-05-07T00:16:16;8.90;99.90
56428;DHT22;42331;53.578;9.760;2023-05-07T00:18:47;8.90;99.90
56428;DHT22;42331;53.578;9.760;2023-05-07T00:21:18;8.90;99.90
56428;DHT22;42331;53.578;9.760;2023-05-07T00:23:49;8.90;99.90
56428;DHT22;42331;53.578;9.760;2023-05-07T00:26:20;8.90;99.90
56428;DHT22;42331;53.578;9.760;2023-05-07T00:28:51;8.90;99.90
56428;DHT22;42331;53.578;9.760;2023-05-07T00:31:22;8.90;99.90
56428;DHT22;42331;53.578;9.760;2023-05-07T00:33:52;8.90;99.90
56428;DHT22;42331;53.578;9.760;2023-05-07T00:36:23;8.90;99.90
56428;DHT22;42331;53.578;9.760;2023-05-07T00:38:56;8.90;99.90
56428;DHT22;42331;53.578;9.760;2023-05-07T00:41:27;8.90;99.90
56428;DHT22;42331;53.578;9.760;2023-05-07T00:43:58;8.90;99.90
56428;DHT22;42331;53.578;9.760;2023-05-07T00:46:30;8.90;99.90
56428;DHT22;42331;53.578;9.760;2023-05-07T00:49:01;8.80;99.90
56428;DHT22;42331;53.578;9.760;2023-05-07T00:51:33;8.80;99.90
56428;DHT22;42331;53.578;9.760;2023-05-07T00:54:04;8.90;99.90
56428;DHT22;42331;53.578;9.760;2023-05-07T00:56:35;8.90;99.90
56428;DHT22;42331;53.578;9.760;2023-05-07T00:59:06;8.80;99.90
56428;DHT22;42331;53.578;9.760;2023-05-07T01:01:37;8.90;99.90
56428;DHT22;42331;53.578;9.760;2023-05-07T01:04:08;8.90;99.90
56428;DHT22;42331;53.578;9.760;2023-05-07T01:06:39;8.90;99.90
56428;DHT22;42331;53.578;9.760;2023-05-07T01:09:12;8.90;99.90
56428;DHT22;42331;53.578;9.760;2023-05-07T01:11:43;8.90;99.90
56428;DHT22;42331;53.578;9.760;2023-05-07T01:14:14;8.90;99.90
56428;DHT22;42331;53.578;9.760;2023-05-07T01:16:45;8.90;99.90
56428;DHT22;42331;53.578;9.760;2023-05-07T01:19:18;8.90;99.90
56428;DHT22;42331;53.578;9.760;2023-05-07T01:21:49;8.90;99.90
56428;DHT22;42331;53.578;9.760;2023-05-07T01:24:21;8.90;99.90
56428;DHT22;42331;53.578;9.760;2023-05-07T01:26:52;8.90;99.90
56428;DHT22;42331;53.578;9.760;2023-05-07T01:29:23;8.90;99.90
56428;DHT22;42331;53.578;9.760;2023-05-07T01:31:56;8.90;99.90
56428;DHT22;42331;53.578;9.760;2023-05-07T01:34:28;8.90;99.90
56428;DHT22;42331;53.578;9.760;2023-05-07T01:37:01;8.90;99.90
56428;DHT22;42331;53.578;9.760;2023-05-07T01:39:32;8.90;99.90
56428;DHT22;42331;53.578;9.760;2023-05-07T01:42:03;8.90;99.90
56428;DHT22;42331;53.578;9.760;2023-05-07T01:44:34;8.90;99.90
56428;DHT22;42331;53.578;9.760;2023-05-07T01:47:06;8.90;99.90
56428;DHT22;42331;53.578;9.760;2023-05-07T01:49:37;8.90;99.90
56428;DHT22;42331;53.578;9.760;2023-05-07T01:52:09;8.90;99.90
56428;DHT22;42331;53.578;9.760;2023-05-07T01:54:40;8.90;99.90
56428;DHT22;42331;53.578;9.760;2023-05-07T01:57:11;8.90;99.90
56428;DHT22;42331;53.578;9.760;2023-05-07T01:59:42;9.00;99.90
56428;DHT22;42331;53.578;9.760;2023-05-07T02:02:12;9.00;99.90
56428;DHT22;42331;53.578;9.760;2023-05-07T02:04:43;9.00;99.90
56428;DHT22;42331;53.578;9.760;2023-05-07T02:07:14;9.00;99.90
56428;DHT22;42331;53.578;9.760;2023-05-07T02:09:45;9.00;99.90
56428;DHT22;42331;53.578;9.760;2023-05-07T02:12:15;9.00;99.90
56428;DHT22;42331;53.578;9.760;2023-05-07T02:14:46;9.00;99.90
56428;DHT22;42331;53.578;9.760;2023-05-07T02:17:17;9.00;99.90
56428;DHT22;42331;53.578;9.760;2023-05-07T02:19:48;9.00;99.90
56428;DHT22;42331;53.578;9.760;2023-05-07T02:22:18;9.00;99.90
56428;DHT22;42331;53.578;9.760;2023-05-07T02:24:49;9.00;99.90
56428;DHT22;42331;53.578;9.760;2023-05-07T02:27:20;9.00;99.90
56428;DHT22;42331;53.578;9.760;2023-05-07T02:29:50;9.00;99.90
56428;DHT22;42331;53.578;9.760;2023-05-07T02:32:21;9.00;99.90
56428;DHT22;42331;53.578;9.760;2023-05-07T02:34:53;9.00;99.90
56428;DHT22;42331;53.578;9.760;2023-05-07T02:37:24;9.00;99.90
56428;DHT22;42331;53.578;9.760;2023-05-07T02:39:54;9.00;99.90
56428;DHT22;42331;53.578;9.760;2023-05-07T02:42:25;9.00;99.90
56428;DHT22;42331;53.578;9.760;2023-05-07T02:44:56;9.00;99.90
56428;DHT22;42331;53.578;9.760;2023-05-07T02:47:26;9.00;99.90
56428;DHT22;42331;53.578;9.760;2023-05-07T02:49:58;9.00;99.90
56428;DHT22;42331;53.578;9.760;2023-05-07T02:52:29;8.90;99.90
56428;DHT22;42331;53.578;9.760;2023-05-07T02:54:59;8.90;99.90
56428;DHT22;42331;53.578;9.760;2023-05-07T02:57:30;9.00;99.90
56428;DHT22;42331;53.578;9.760;2023-05-07T03:00:18;9.00;99.90
56428;DHT22;42331;53.578;9.760;2023-05-07T03:02:49;9.00;99.90
56428;DHT22;42331;53.578;9.760;2023-05-07T03:05:20;9.00;99.90
56428;DHT22;42331;53.578;9.760;2023-05-07T03:07:51;9.00;99.90
56428;DHT22;42331;53.578;9.760;2023-05-07T03:10:21;9.00;99.90
56428;DHT22;42331;53.578;9.760;2023-05-07T03:12:52;9.00;99.90
56428;DHT22;42331;53.578;9.760;2023-05-07T03:15:23;9.00;99.90
56428;DHT22;42331;53.578;9.760;2023-05-07T03:17:53;9.00;99.90
56428;DHT22;42331;53.578;9.760;2023-05-07T03:20:24;9.00;99.90
56428;DHT22;42331;53.578;9.760;2023-05-07T03:22:55;9.00;99.90
56428;DHT22;42331;53.578;9.760;2023-05-07T03:25:26;9.00;99.90
56428;DHT22;42331;53.578;9.760;2023-05-07T03:27:56;9.00;99.90
56428;DHT22;42331;53.578;9.760;2023-05-07T03:30:27;9.00;99.90
56428;DHT22;42331;53.578;9.760;2023-05-07T03:32:58;9.00;99.90
56428;DHT22;42331;53.578;9.760;2023-05-07T03:35:29;9.00;99.90
56428;DHT22;42331;53.578;9.760;2023-05-07T03:37:59;9.00;99.90
56428;DHT22;42331;53.578;9.760;2023-05-07T03:40:30;9.00;99.90
56428;DHT22;42331;53.578;9.760;2023-05-07T03:43:01;9.00;99.90
56428;DHT22;42331;53.578;9.760;2023-05-07T03:45:32;9.00;99.90
56428;DHT22;42331;53.578;9.760;2023-05-07T03:48:02;9.00;99.90
56428;DHT22;42331;53.578;9.760;2023-05-07T03:50:33;9.00;99.90
56428;DHT22;42331;53.578;9.760;2023-05-07T03:53:04;8.90;99.90
56428;DHT22;42331;53.578;9.760;2023-05-07T03:55:35;8.90;99.90
56428;DHT22;42331;53.578;9.760;2023-05-07T03:58:06;9.00;99.90
56428;DHT22;42331;53.578;9.760;2023-05-07T04:00:36;8.90;99.90
56428;DHT22;42331;53.578;9.760;2023-05-07T04:03:10;8.90;99.90
56428;DHT22;42331;53.578;9.760;2023-05-07T04:05:41;9.00;99.90
56428;DHT22;42331;53.578;9.760;2023-05-07T04:08:12;8.90;99.90
56428;DHT22;42331;53.578;9.760;2023-05-07T04:10:42;8.90;99.90
56428;DHT22;42331;53.578;9.760;2023-05-07T04:13:13;8.90;99.90
56428;DHT22;42331;53.578;9.760;2023-05-07T04:15:44;9.00;99.90
56428;DHT22;42331;53.578;9.760;2023-05-07T04:18:16;9.00;99.90
56428;DHT22;42331;53.578;9.760;2023-05-07T04:20:48;9.00;99.90
56428;DHT22;42331;53.578;9.760;2023-05-07T04:23:20;8.90;99.90
56428;DHT22;42331;53.578;9.760;2023-05-07T04:25:51;8.90;99.90
56428;DHT22;42331;53.578;9.760;2023-05-07T04:28:21;8.90;99.90
56428;DHT22;42331;53.578;9.760;2023-05-07T04:30:52;9.00;99.90
56428;DHT22;42331;53.578;9.760;2023-05-07T04:33:23;9.00;99.90
56428;DHT22;42331;53.578;9.760;2023-05-07T04:35:53;9.00;99.90
56428;DHT22;42331;53.578;9.760;2023-05-07T04:38:24;9.00;99.90
56428;DHT22;42331;53.578;9.760;2023-05-07T04:40:55;9.00;99.90
56428;DHT22;42331;53.578;9.760;2023-05-07T04:43:27;9.00;99.90
56428;DHT22;42331;53.578;9.760;2023-05-07T04:45:58;9.00;99.90
56428;DHT22;42331;53.578;9.760;2023-05-07T04:48:29;9.00;99.90
56428;DHT22;42331;53.578;9.760;2023-05-07T04:50:59;9.10;99.90
56428;DHT22;42331;53.578;9.760;2023-05-07T04:53:30;9.10;99.90
56428;DHT22;42331;53.578;9.760;2023-05-07T04:56:01;9.10;99.90
56428;DHT22;42331;53.578;9.760;2023-05-07T04:58:31;9.10;99.90
56428;DHT22;42331;53.578;9.760;2023-05-07T05:01:02;9.10;99.90
56428;DHT22;42331;53.578;9.760;2023-05-07T05:03:33;9.20;99.90
56428;DHT22;42331;53.578;9.760;2023-05-07T05:06:04;9.20;99.90
56428;DHT22;42331;53.578;9.760;2023-05-07T05:08:35;9.20;99.90
56428;DHT22;42331;53.578;9.760;2023-05-07T05:11:05;9.20;99.90
56428;DHT22;42331;53.578;9.760;2023-05-07T05:13:36;9.20;99.90
56428;DHT22;42331;53.578;9.760;2023-05-07T05:16:07;9.20;99.90
56428;DHT22;42331;53.578;9.760;2023-05-07T05:18:37;9.30;99.90
56428;DHT22;42331;53.578;9.760;2023-05-07T05:21:08;9.30;99.90
56428;DHT22;42331;53.578;9.760;2023-05-07T05:23:39;9.30;99.90
56428;DHT22;42331;53.578;9.760;2023-05-07T05:26:09;9.20;99.90
56428;DHT22;42331;53.578;9.760;2023-05-07T05:28:40;9.30;99.90
56428;DHT22;42331;53.578;9.760;2023-05-07T05:31:11;9.30;99.90
56428;DHT22;42331;53.578;9.760;2023-05-07T05:33:41;9.20;99.90
56428;DHT22;42331;53.578;9.760;2023-05-07T05:36:12;9.20;99.90
56428;DHT22;42331;53.578;9.760;2023-05-07T05:38:43;9.20;99.90
56428;DHT22;42331;53.578;9.760;2023-05-07T05:41:14;9.20;99.90
56428;DHT22;42331;53.578;9.760;2023-05-07T05:43:45;9.20;99.90
56428;DHT22;42331;53.578;9.760;2023-05-07T05:46:16;9.20;99.90
56428;DHT22;42331;53.578;9.760;2023-05-07T05:48:46;9.20;99.90
56428;DHT22;42331;53.578;9.760;2023-05-07T05:51:17;9.20;99.90
56428;DHT22;42331;53.578;9.760;2023-05-07T05:53:48;9.20;99.90
56428;DHT22;42331;53.578;9.760;2023-05-07T05:56:19;9.20;99.90
56428;DHT22;42331;53.578;9.760;2023-05-07T05:58:50;9.20;99.90
56428;DHT22;42331;53.578;9.760;2023-05-07T06:01:21;9.20;99.90
56428;DHT22;42331;53.578;9.760;2023-05-07T06:03:52;9.30;99.90
56428;DHT22;42331;53.578;9.760;2023-05-07T06:06:22;9.30;99.90
56428;DHT22;42331;53.578;9.760;2023-05-07T06:08:53;9.30;99.90
56428;DHT22;42331;53.578;9.760;2023-05-07T06:11:24;9.40;99.90
56428;DHT22;42331;53.578;9.760;2023-05-07T06:13:55;9.40;99.90
56428;DHT22;42331;53.578;9.760;2023-05-07T06:16:26;9.40;99.90
56428;DHT22;42331;53.578;9.760;2023-05-07T06:18:57;9.40;99.90
56428;DHT22;42331;53.578;9.760;2023-05-07T06:21:27;9.40;99.90
56428;DHT22;42331;53.578;9.760;2023-05-07T06:23:58;9.30;99.90
56428;DHT22;42331;53.578;9.760;2023-05-07T06:26:29;9.40;99.90
56428;DHT22;42331;53.578;9.760;2023-05-07T06:28:59;9.40;99.90
56428;DHT22;42331;53.578;9.760;2023-05-07T06:31:30;9.40;99.90
56428;DHT22;42331;53.578;9.760;2023-05-07T06:34:02;9.40;99.90
56428;DHT22;42331;53.578;9.760;2023-05-07T06:36:34;9.40;99.90
56428;DHT22;42331;53.578;9.760;2023-05-07T06:39:06;9.50;99.90
56428;DHT22;42331;53.578;9.760;2023-05-07T06:41:36;9.50;99.90
56428;DHT22;42331;53.578;9.760;2023-05-07T06:44:07;9.60;99.90
56428;DHT22;42331;53.578;9.760;2023-05-07T06:46:38;9.70;99.90
56428;DHT22;42331;53.578;9.760;2023-05-07T06:49:08;9.70;99.90
56428;DHT22;42331;53.578;9.760;2023-05-07T06:51:39;9.60;99.90
56428;DHT22;42331;53.578;9.760;2023-05-07T06:54:10;9.60;99.90
56428;DHT22;42331;53.578;9.760;2023-05-07T06:56:40;9.70;99.90
56428;DHT22;42331;53.578;9.760;2023-05-07T06:59:12;9.70;99.90
56428;DHT22;42331;53.578;9.760;2023-05-07T07:01:42;9.70;99.90
56428;DHT22;42331;53.578;9.760;2023-05-07T07:04:13;9.70;99.90
56428;DHT22;42331;53.578;9.760;2023-05-07T07:06:44;9.80;99.90
56428;DHT22;42331;53.578;9.760;2023-05-07T07:09:15;9.80;99.90
56428;DHT22;42331;53.578;9.760;2023-05-07T07:11:47;9.80;99.90
56428;DHT22;42331;53.578;9.760;2023-05-07T07:14:17;9.80;99.90
56428;DHT22;42331;53.578;9.760;2023-05-07T07:16:48;9.90;99.90
56428;DHT22;42331;53.578;9.760;2023-05-07T07:19:19;10.00;99.90
56428;DHT22;42331;53.578;9.760;2023-05-07T07:21:50;10.10;99.90
56428;DHT22;42331;53.578;9.760;2023-05-07T07:24:21;10.00;99.90
56428;DHT22;42331;53.578;9.760;2023-05-07T07:26:52;10.10;99.90
56428;DHT22;42331;53.578;9.760;2023-05-07T07:29:22;10.10;99.90
56428;DHT22;42331;53.578;9.760;2023-05-07T07:31:53;10.20;99.90
56428;DHT22;42331;53.578;9.760;2023-05-07T07:34:24;10.10;99.90
56428;DHT22;42331;53.578;9.760;2023-05-07T07:36:54;10.20;99.90
56428;DHT22;42331;53.578;9.760;2023-05-07T07:39:25;10.30;99.90
56428;DHT22;42331;53.578;9.760;2023-05-07T07:41:56;10.30;99.90
56428;DHT22;42331;53.578;9.760;2023-05-07T07:44:28;10.30;99.90
56428;DHT22;42331;53.578;9.760;2023-05-07T07:46:58;10.30;99.90
56428;DHT22;42331;53.578;9.760;2023-05-07T07:49:29;10.40;99.90
56428;DHT22;42331;53.578;9.760;2023-05-07T07:52:00;10.40;99.90
56428;DHT22;42331;53.578;9.760;2023-05-07T07:54:31;10.50;99.90
56428;DHT22;42331;53.578;9.760;2023-05-07T07:57:01;10.50;99.90
56428;DHT22;42331;53.578;9.760;2023-05-07T07:59:32;10.50;99.90
56428;DHT22;42331;53.578;9.760;2023-05-07T08:02:03;10.50;99.90
56428;DHT22;42331;53.578;9.760;2023-05-07T08:04:33;10.50;99.90
56428;DHT22;42331;53.578;9.760;2023-05-07T08:07:04;10.50;99.90
56428;DHT22;42331;53.578;9.760;2023-05-07T08:09:37;10.60;99.90
56428;DHT22;42331;53.578;9.760;2023-05-07T08:12:08;10.80;99.90
56428;DHT22;42331;53.578;9.760;2023-05-07T08:14:38;10.80;99.90
56428;DHT22;42331;53.578;9.760;2023-05-07T08:17:09;10.70;99.90
56428;DHT22;42331;53.578;9.760;2023-05-07T08:19:40;10.80;99.90
56428;DHT22;42331;53.578;9.760;2023-05-07T08:22:11;10.60;99.90
56428;DHT22;42331;53.578;9.760;2023-05-07T08:24:42;10.70;99.90
56428;DHT22;42331;53.578;9.760;2023-05-07T08:27:13;10.60;99.90
56428;DHT22;42331;53.578;9.760;2023-05-07T08:29:43;10.60;99.90
56428;DHT22;42331;53.578;9.760;2023-05-07T08:32:17;10.70;99.90
56428;DHT22;42331;53.578;9.760;2023-05-07T08:34:48;10.70;99.90
56428;DHT22;42331;53.578;9.760;2023-05-07T08:37:19;10.70;99.90
56428;DHT22;42331;53.578;9.760;2023-05-07T08:39:50;10.80;99.90
56428;DHT22;42331;53.578;9.760;2023-05-07T08:42:23;10.80;99.90
56428;DHT22;42331;53.578;9.760;2023-05-07T08:44:57;10.80;99.90
56428;DHT22;42331;53.578;9.760;2023-05-07T08:47:35;10.90;99.90
56428;DHT22;42331;53.578;9.760;2023-05-07T08:50:09;11.00;99.90
56428;DHT22;42331;53.578;9.760;2023-05-07T08:52:40;11.00;99.90
56428;DHT22;42331;53.578;9.760;2023-05-07T08:55:12;11.00;99.90
56428;DHT22;42331;53.578;9.760;2023-05-07T08:57:43;11.00;99.90
56428;DHT22;42331;53.578;9.760;2023-05-07T09:00:14;11.10;99.90
56428;DHT22;42331;53.578;9.760;2023-05-07T09:02:45;11.00;99.90
56428;DHT22;42331;53.578;9.760;2023-05-07T09:05:16;10.90;99.90
56428;DHT22;42331;53.578;9.760;2023-05-07T09:07:48;10.90;99.90
56428;DHT22;42331;53.578;9.760;2023-05-07T09:10:20;10.90;99.90
56428;DHT22;42331;53.578;9.760;2023-05-07T09:12:51;11.00;99.90
56428;DHT22;42331;53.578;9.760;2023-05-07T09:15:22;11.20;99.90
56428;DHT22;42331;53.578;9.760;2023-05-07T09:17:52;11.30;99.90
56428;DHT22;42331;53.578;9.760;2023-05-07T09:20:23;11.30;99.90
56428;DHT22;42331;53.578;9.760;2023-05-07T09:22:55;11.40;99.90
56428;DHT22;42331;53.578;9.760;2023-05-07T09:25:34;11.40;99.90
56428;DHT22;42331;53.578;9.760;2023-05-07T09:28:05;11.40;99.90
56428;DHT22;42331;53.578;9.760;2023-05-07T09:30:40;11.40;99.90
56428;DHT22;42331;53.578;9.760;2023-05-07T09:33:11;11.40;99.90
56428;DHT22;42331;53.578;9.760;2023-05-07T09:35:41;11.30;99.90
56428;DHT22;42331;53.578;9.760;2023-05-07T09:38:12;11.40;99.90
56428;DHT22;42331;53.578;9.760;2023-05-07T09:40:43;11.60;99.90
56428;DHT22;42331;53.578;9.760;2023-05-07T09:43:14;11.80;99.90
56428;DHT22;42331;53.578;9.760;2023-05-07T09:45:46;11.80;99.90
56428;DHT22;42331;53.578;9.760;2023-05-07T09:48:21;11.70;99.90
56428;DHT22;42331;53.578;9.760;2023-05-07T09:50:55;11.80;99.90
56428;DHT22;42331;53.578;9.760;2023-05-07T09:53:30;11.80;99.90
56428;DHT22;42331;53.578;9.760;2023-05-07T09:56:02;11.70;99.90
56428;DHT22;42331;53.578;9.760;2023-05-07T09:58:33;11.80;99.90
56428;DHT22;42331;53.578;9.760;2023-05-07T10:01:05;11.80;99.90
56428;DHT22;42331;53.578;9.760;2023-05-07T10:03:39;11.80;99.90
56428;DHT22;42331;53.578;9.760;2023-05-07T10:06:10;11.60;99.90
56428;DHT22;42331;53.578;9.760;2023-05-07T10:08:43;11.70;99.90
56428;DHT22;42331;53.578;9.760;2023-05-07T10:11:14;11.80;99.90
56428;DHT22;42331;53.578;9.760;2023-05-07T10:13:46;11.70;99.90
56428;DHT22;42331;53.578;9.760;2023-05-07T10:16:18;11.70;99.90
56428;DHT22;42331;53.578;9.760;2023-05-07T10:18:49;11.90;99.90
56428;DHT22;42331;53.578;9.760;2023-05-07T10:21:23;11.90;99.90
56428;DHT22;42331;53.578;9.760;2023-05-07T10:23:59;12.00;99.90
56428;DHT22;42331;53.578;9.760;2023-05-07T10:26:31;12.00;99.90
56428;DHT22;42331;53.578;9.760;2023-05-07T10:29:14;12.20;99.90
56428;DHT22;42331;53.578;9.760;2023-05-07T10:34:26;12.20;99.90
56428;DHT22;42331;53.578;9.760;2023-05-07T10:36:58;12.20;99.90
56428;DHT22;42331;53.578;9.760;2023-05-07T10:39:29;12.40;99.90
56428;DHT22;42331;53.578;9.760;2023-05-07T10:42:12;12.50;99.90
56428;DHT22;42331;53.578;9.760;2023-05-07T10:44:43;12.40;99.90
56428;DHT22;42331;53.578;9.760;2023-05-07T10:47:16;12.20;99.90
56428;DHT22;42331;53.578;9.760;2023-05-07T10:52:21;12.20;99.90
56428;DHT22;42331;53.578;9.760;2023-05-07T10:57:51;12.30;99.90
56428;DHT22;42331;53.578;9.760;2023-05-07T11:05:33;12.40;99.90
56428;DHT22;42331;53.578;9.760;2023-05-07T11:08:04;12.40;99.90
56428;DHT22;42331;53.578;9.760;2023-05-07T11:10:56;12.40;99.90
56428;DHT22;42331;53.578;9.760;2023-05-07T11:13:44;12.50;99.90
56428;DHT22;42331;53.578;9.760;2023-05-07T11:16:21;12.40;99.90
56428;DHT22;42331;53.578;9.760;2023-05-07T11:18:54;12.50;99.90
56428;DHT22;42331;53.578;9.760;2023-05-07T11:21:36;12.80;99.90
56428;DHT22;42331;53.578;9.760;2023-05-07T11:24:09;12.90;99.90
56428;DHT22;42331;53.578;9.760;2023-05-07T11:26:48;13.00;99.90
56428;DHT22;42331;53.578;9.760;2023-05-07T11:29:20;13.00;99.90
56428;DHT22;42331;53.578;9.760;2023-05-07T11:31:54;13.00;99.90
56428;DHT22;42331;53.578;9.760;2023-05-07T11:34:26;13.20;99.90
56428;DHT22;42331;53.578;9.760;2023-05-07T11:36:58;13.20;99.90
56428;DHT22;42331;53.578;9.760;2023-05-07T11:39:31;13.20;99.90
56428;DHT22;42331;53.578;9.760;2023-05-07T11:42:03;13.30;99.90
56428;DHT22;42331;53.578;9.760;2023-05-07T11:44:46;13.30;99.90
56428;DHT22;42331;53.578;9.760;2023-05-07T11:47:19;13.40;99.90
56428;DHT22;42331;53.578;9.760;2023-05-07T11:49:51;13.70;99.90
56428;DHT22;42331;53.578;9.760;2023-05-07T11:52:23;13.80;99.90
56428;DHT22;42331;53.578;9.760;2023-05-07T11:54:58;13.90;99.90
56428;DHT22;42331;53.578;9.760;2023-05-07T11:57:39;13.80;99.90
56428;DHT22;42331;53.578;9.760;2023-05-07T12:00:10;13.40;99.90
56428;DHT22;42331;53.578;9.760;2023-05-07T12:02:41;13.40;99.90
56428;DHT22;42331;53.578;9.760;2023-05-07T12:05:13;13.40;99.90
56428;DHT22;42331;53.578;9.760;2023-05-07T12:07:43;13.40;99.90
56428;DHT22;42331;53.578;9.760;2023-05-07T12:10:14;13.40;99.90
56428;DHT22;42331;53.578;9.760;2023-05-07T12:12:46;13.60;99.90
56428;DHT22;42331;53.578;9.760;2023-05-07T12:15:17;13.80;99.90
56428;DHT22;42331;53.578;9.760;2023-05-07T12:17:48;13.90;99.90
56428;DHT22;42331;53.578;9.760;2023-05-07T12:20:19;14.10;99.90
56428;DHT22;42331;53.578;9.760;2023-05-07T12:22:50;14.10;99.90
56428;DHT22;42331;53.578;9.760;2023-05-07T12:25:22;14.00;99.90
56428;DHT22;42331;53.578;9.760;2023-05-07T12:27:53;13.90;99.90
56428;DHT22;42331;53.578;9.760;2023-05-07T12:30:27;13.80;99.90
56428;DHT22;42331;53.578;9.760;2023-05-07T12:32:57;13.90;99.90
56428;DHT22;42331;53.578;9.760;2023-05-07T12:35:32;13.90;99.90
56428;DHT22;42331;53.578;9.760;2023-05-07T12:38:14;13.90;99.90
56428;DHT22;42331;53.578;9.760;2023-05-07T12:40:47;14.00;99.90
56428;DHT22;42331;53.578;9.760;2023-05-07T12:43:25;14.10;99.90
56428;DHT22;42331;53.578;9.760;2023-05-07T12:46:05;14.00;99.90
56428;DHT22;42331;53.578;9.760;2023-05-07T12:48:41;14.00;99.90
56428;DHT22;42331;53.578;9.760;2023-05-07T12:51:13;14.20;99.90
56428;DHT22;42331;53.578;9.760;2023-05-07T12:53:45;14.20;99.90
56428;DHT22;42331;53.578;9.760;2023-05-07T12:56:16;14.20;99.90
56428;DHT22;42331;53.578;9.760;2023-05-07T12:58:48;14.20;99.90
56428;DHT22;42331;53.578;9.760;2023-05-07T13:01:19;14.30;99.90
56428;DHT22;42331;53.578;9.760;2023-05-07T13:03:50;14.40;99.90
56428;DHT22;42331;53.578;9.760;2023-05-07T13:06:21;14.30;99.90
56428;DHT22;42331;53.578;9.760;2023-05-07T13:08:51;14.30;99.90
56428;DHT22;42331;53.578;9.760;2023-05-07T13:11:22;14.30;99.90
56428;DHT22;42331;53.578;9.760;2023-05-07T13:13:53;14.40;99.90
56428;DHT22;42331;53.578;9.760;2023-05-07T13:16:24;14.50;99.90
56428;DHT22;42331;53.578;9.760;2023-05-07T13:18:54;14.70;99.90
56428;DHT22;42331;53.578;9.760;2023-05-07T13:21:25;14.80;99.90
56428;DHT22;42331;53.578;9.760;2023-05-07T13:23:57;14.70;99.90
56428;DHT22;42331;53.578;9.760;2023-05-07T13:26:30;14.60;99.90
56428;DHT22;42331;53.578;9.760;2023-05-07T13:29:01;14.40;99.90
56428;DHT22;42331;53.578;9.760;2023-05-07T13:31:32;14.40;99.90
56428;DHT22;42331;53.578;9.760;2023-05-07T13:34:04;14.70;99.90
56428;DHT22;42331;53.578;9.760;2023-05-07T13:36:34;14.80;99.90
56428;DHT22;42331;53.578;9.760;2023-05-07T13:39:07;14.80;99.90
56428;DHT22;42331;53.578;9.760;2023-05-07T13:41:40;14.80;99.90
56428;DHT22;42331;53.578;9.760;2023-05-07T13:44:10;14.80;99.90
56428;DHT22;42331;53.578;9.760;2023-05-07T13:46:44;14.90;99.90
56428;DHT22;42331;53.578;9.760;2023-05-07T13:49:15;14.70;99.90
56428;DHT22;42331;53.578;9.760;2023-05-07T13:51:46;14.70;99.90
56428;DHT22;42331;53.578;9.760;2023-05-07T13:54:17;14.90;99.90
56428;DHT22;42331;53.578;9.760;2023-05-07T13:56:47;15.00;99.90
56428;DHT22;42331;53.578;9.760;2023-05-07T13:59:19;14.90;99.90
56428;DHT22;42331;53.578;9.760;2023-05-07T14:01:49;14.90;99.90
56428;DHT22;42331;53.578;9.760;2023-05-07T14:04:20;15.10;99.90
56428;DHT22;42331;53.578;9.760;2023-05-07T14:06:51;15.20;99.90
56428;DHT22;42331;53.578;9.760;2023-05-07T14:09:21;15.30;99.90
56428;DHT22;42331;53.578;9.760;2023-05-07T14:11:52;15.30;99.90
56428;DHT22;42331;53.578;9.760;2023-05-07T14:14:23;15.30;99.90
56428;DHT22;42331;53.578;9.760;2023-05-07T14:16:54;15.30;99.90
56428;DHT22;42331;53.578;9.760;2023-05-07T14:19:24;15.30;99.90
56428;DHT22;42331;53.578;9.760;2023-05-07T14:22:20;15.40;99.90
56428;DHT22;42331;53.578;9.760;2023-05-07T14:24:50;15.50;99.90
56428;DHT22;42331;53.578;9.760;2023-05-07T14:27:21;15.50;99.90
56428;DHT22;42331;53.578;9.760;2023-05-07T14:29:52;15.50;99.90
56428;DHT22;42331;53.578;9.760;2023-05-07T14:32:23;15.50;99.90
56428;DHT22;42331;53.578;9.760;2023-05-07T14:34:53;15.50;99.90
56428;DHT22;42331;53.578;9.760;2023-05-07T14:37:24;15.50;99.90
56428;DHT22;42331;53.578;9.760;2023-05-07T14:39:55;15.60;99.90
56428;DHT22;42331;53.578;9.760;2023-05-07T14:42:26;15.60;99.90
56428;DHT22;42331;53.578;9.760;2023-05-07T14:44:56;15.70;99.90
56428;DHT22;42331;53.578;9.760;2023-05-07T14:47:27;15.70;99.90
56428;DHT22;42331;53.578;9.760;2023-05-07T14:49:58;15.80;99.90
56428;DHT22;42331;53.578;9.760;2023-05-07T14:52:29;15.80;99.90
56428;DHT22;42331;53.578;9.760;2023-05-07T14:55:00;15.80;99.90
56428;DHT22;42331;53.578;9.760;2023-05-07T14:57:31;15.50;99.90
56428;DHT22;42331;53.578;9.760;2023-05-07T15:00:05;15.40;99.90
56428;DHT22;42331;53.578;9.760;2023-05-07T15:02:37;15.30;99.90
56428;DHT22;42331;53.578;9.760;2023-05-07T15:05:08;15.30;99.90
56428;DHT22;42331;53.578;9.760;2023-05-07T15:07:38;15.40;99.90
56428;DHT22;42331;53.578;9.760;2023-05-07T15:10:09;15.40;99.90
56428;DHT22;42331;53.578;9.760;2023-05-07T15:12:40;15.40;99.90
56428;DHT22;42331;53.578;9.760;2023-05-07T15:15:11;15.50;99.90
56428;DHT22;42331;53.578;9.760;2023-05-07T15:17:41;15.50;99.90
56428;DHT22;42331;53.578;9.760;2023-05-07T15:20:12;15.60;99.90
56428;DHT22;42331;53.578;9.760;2023-05-07T15:22:43;15.60;99.90
56428;DHT22;42331;53.578;9.760;2023-05-07T15:25:14;15.60;99.90
56428;DHT22;42331;53.578;9.760;2023-05-07T15:27:44;15.60;99.90
56428;DHT22;42331;53.578;9.760;2023-05-07T15:30:15;15.50;99.90
56428;DHT22;42331;53.578;9.760;2023-05-07T15:32:46;15.60;99.90
56428;DHT22;42331;53.578;9.760;2023-05-07T15:35:17;15.60;99.90
56428;DHT22;42331;53.578;9.760;2023-05-07T15:37:52;15.60;99.90
56428;DHT22;42331;53.578;9.760;2023-05-07T15:40:25;15.60;99.90
56428;DHT22;42331;53.578;9.760;2023-05-07T15:42:56;15.70;99.90
56428;DHT22;42331;53.578;9.760;2023-05-07T15:45:27;15.70;99.90
56428;DHT22;42331;53.578;9.760;2023-05-07T15:47:58;15.60;99.90
56428;DHT22;42331;53.578;9.760;2023-05-07T15:50:37;15.50;99.90
56428;DHT22;42331;53.578;9.760;2023-05-07T15:53:08;15.60;99.90
56428;DHT22;42331;53.578;9.760;2023-05-07T15:55:41;15.60;99.90
56428;DHT22;42331;53.578;9.760;2023-05-07T15:58:13;15.70;99.90
56428;DHT22;42331;53.578;9.760;2023-05-07T16:00:43;15.70;99.90
56428;DHT22;42331;53.578;9.760;2023-05-07T16:03:14;15.70;99.90
56428;DHT22;42331;53.578;9.760;2023-05-07T16:05:45;15.80;99.90
56428;DHT22;42331;53.578;9.760;2023-05-07T16:08:16;15.70;99.90
56428;DHT22;42331;53.578;9.760;2023-05-07T16:10:47;15.70;99.90
56428;DHT22;42331;53.578;9.760;2023-05-07T16:13:17;15.60;99.90
56428;DHT22;42331;53.578;9.760;2023-05-07T16:15:51;15.60;99.90
56428;DHT22;42331;53.578;9.760;2023-05-07T16:18:24;15.70;99.90